LAP107 SGAS-SLLP
Flight info
| Callsign | LAP107 |
|---|---|
| Flight time | N/A |
| Altitude | 36000 |
| Route | UKELA UKELA UM657 VAPAS |
| Aircraft | B733/M-SDE2E3FHIRW/S |
Departure
| Time | 2026-05-07 02:43 |
|---|---|
| Airport | Silvio Pettirossi International Airport (SGAS) |
Arrival
| Time | N/A |
|---|---|
| Airport | El Alto International Airport (SLLP) |
| Time | Latitude | Longitude | Altitude | Speed | Heading |
|---|---|---|---|---|---|
| 2026-05-07 02:34 | -25.24234 | -57.51550 | 298 ft | 0 kts | 104° |
| 2026-05-07 02:38 | -25.24232 | -57.51557 | 298 ft | 2 kts | 104° |
| 2026-05-07 02:38 | -25.24228 | -57.51574 | 298 ft | 2 kts | 104° |
| 2026-05-07 02:38 | -25.24225 | -57.51589 | 298 ft | 2 kts | 104° |
| 2026-05-07 02:39 | -25.24221 | -57.51606 | 298 ft | 2 kts | 104° |
| 2026-05-07 02:39 | -25.24214 | -57.51621 | 298 ft | 2 kts | 132° |
| 2026-05-07 02:39 | -25.24203 | -57.51631 | 298 ft | 2 kts | 154° |
| 2026-05-07 02:39 | -25.24188 | -57.51636 | 298 ft | 2 kts | 176° |
| 2026-05-07 02:40 | -25.24178 | -57.51636 | 298 ft | 0 kts | 191° |
| 2026-05-07 02:40 | -25.24171 | -57.51634 | 298 ft | 0 kts | 194° |
| 2026-05-07 02:41 | -25.24182 | -57.51637 | 298 ft | 4 kts | 193° |
| 2026-05-07 02:42 | -25.24250 | -57.51654 | 298 ft | 15 kts | 193° |
| 2026-05-07 02:42 | -25.24299 | -57.51751 | 298 ft | 19 kts | 283° |
| 2026-05-07 02:42 | -25.24263 | -57.51924 | 298 ft | 21 kts | 284° |
| 2026-05-07 02:42 | -25.24183 | -57.51964 | 298 ft | 22 kts | 16° |
| 2026-05-07 02:43 | -25.23755 | -57.51852 | 298 ft | 104 kts | 15° |
| 2026-05-07 02:43 | -25.22792 | -57.51619 | 331 ft | 169 kts | 13° |
| 2026-05-07 02:43 | -25.21539 | -57.51331 | 758 ft | 192 kts | 14° |
| 2026-05-07 02:43 | -25.20212 | -57.51023 | 1537 ft | 195 kts | 12° |
| 2026-05-07 02:44 | -25.18930 | -57.50752 | 2485 ft | 191 kts | 13° |
| 2026-05-07 02:44 | -25.17530 | -57.50470 | 2990 ft | 217 kts | 11° |
| 2026-05-07 02:44 | -25.15983 | -57.50188 | 3802 ft | 229 kts | 11° |
| 2026-05-07 02:44 | -25.14408 | -57.49786 | 4412 ft | 239 kts | 15° |
| 2026-05-07 02:45 | -25.12686 | -57.49306 | 4806 ft | 258 kts | 14° |
| 2026-05-07 02:45 | -25.10891 | -57.48828 | 5450 ft | 265 kts | 14° |
| 2026-05-07 02:45 | -25.09066 | -57.48356 | 6185 ft | 269 kts | 13° |
| 2026-05-07 02:45 | -25.07199 | -57.48071 | 6886 ft | 273 kts | 354° |
| 2026-05-07 02:46 | -25.05440 | -57.48869 | 7563 ft | 279 kts | 320° |
| 2026-05-07 02:46 | -25.04189 | -57.50561 | 8269 ft | 284 kts | 307° |
| 2026-05-07 02:46 | -25.03035 | -57.52352 | 9003 ft | 286 kts | 307° |
| 2026-05-07 02:46 | -25.01875 | -57.54137 | 9730 ft | 288 kts | 307° |
| 2026-05-07 02:47 | -25.00685 | -57.55959 | 10276 ft | 297 kts | 307° |
| 2026-05-07 02:47 | -24.99416 | -57.57894 | 10336 ft | 323 kts | 307° |
| 2026-05-07 02:47 | -24.98049 | -57.59976 | 10616 ft | 339 kts | 307° |
| 2026-05-07 02:47 | -24.96626 | -57.62139 | 11218 ft | 345 kts | 307° |
| 2026-05-07 02:48 | -24.95208 | -57.64294 | 11878 ft | 348 kts | 307° |
| 2026-05-07 02:48 | -24.93774 | -57.66470 | 12537 ft | 351 kts | 307° |
| 2026-05-07 02:48 | -24.92337 | -57.68650 | 13242 ft | 351 kts | 307° |
| 2026-05-07 02:48 | -24.90896 | -57.70834 | 13917 ft | 351 kts | 307° |
| 2026-05-07 02:49 | -24.89439 | -57.73040 | 14553 ft | 353 kts | 307° |
| 2026-05-07 02:49 | -24.87975 | -57.75243 | 15169 ft | 354 kts | 307° |
| 2026-05-07 02:49 | -24.86519 | -57.77436 | 15809 ft | 354 kts | 307° |
| 2026-05-07 02:49 | -24.85058 | -57.79642 | 16425 ft | 355 kts | 307° |
| 2026-05-07 02:50 | -24.83597 | -57.81850 | 17019 ft | 356 kts | 307° |
| 2026-05-07 02:50 | -24.82134 | -57.84061 | 17597 ft | 357 kts | 307° |
| 2026-05-07 02:50 | -24.80655 | -57.86295 | 18171 ft | 358 kts | 307° |
| 2026-05-07 02:50 | -24.79184 | -57.88517 | 18732 ft | 359 kts | 307° |
| 2026-05-07 02:51 | -24.77705 | -57.90748 | 19281 ft | 359 kts | 307° |
| 2026-05-07 02:51 | -24.76220 | -57.92989 | 19821 ft | 360 kts | 307° |
| 2026-05-07 02:51 | -24.74727 | -57.95241 | 20351 ft | 361 kts | 307° |
| 2026-05-07 02:51 | -24.73246 | -57.97474 | 20866 ft | 362 kts | 307° |
| 2026-05-07 02:52 | -24.71746 | -57.99735 | 21371 ft | 363 kts | 307° |
| 2026-05-07 02:52 | -24.70233 | -58.02012 | 21867 ft | 364 kts | 307° |
| 2026-05-07 02:52 | -24.68723 | -58.04286 | 22346 ft | 365 kts | 306° |
| 2026-05-07 02:52 | -24.67226 | -58.06539 | 22807 ft | 366 kts | 306° |
| 2026-05-07 02:53 | -24.65704 | -58.08828 | 23262 ft | 367 kts | 306° |
| 2026-05-07 02:53 | -24.64187 | -58.11108 | 23702 ft | 368 kts | 306° |
| 2026-05-07 02:53 | -24.62674 | -58.13382 | 24129 ft | 369 kts | 306° |
| 2026-05-07 02:53 | -24.60911 | -58.15465 | 24536 ft | 371 kts | 316° |
| 2026-05-07 02:54 | -24.58961 | -58.17341 | 24928 ft | 372 kts | 317° |
| 2026-05-07 02:54 | -24.56972 | -58.19254 | 25332 ft | 373 kts | 316° |
| 2026-05-07 02:54 | -24.55025 | -58.21139 | 25714 ft | 375 kts | 316° |
| 2026-05-07 02:54 | -24.53057 | -58.23051 | 26090 ft | 376 kts | 316° |
| 2026-05-07 02:55 | -24.51088 | -58.24966 | 26460 ft | 377 kts | 316° |
| 2026-05-07 02:55 | -24.49101 | -58.26899 | 26821 ft | 378 kts | 316° |
| 2026-05-07 02:55 | -24.47125 | -58.28823 | 27177 ft | 379 kts | 316° |
| 2026-05-07 02:55 | -24.45140 | -58.30754 | 27541 ft | 380 kts | 315° |
| 2026-05-07 02:56 | -24.43161 | -58.32677 | 28000 ft | 378 kts | 315° |
| 2026-05-07 02:56 | -24.41197 | -58.34585 | 28526 ft | 374 kts | 315° |
| 2026-05-07 02:56 | -24.39242 | -58.36485 | 29050 ft | 370 kts | 315° |
| 2026-05-07 02:56 | -24.37310 | -58.38361 | 29518 ft | 367 kts | 314° |
| 2026-05-07 02:57 | -24.35399 | -58.40217 | 29928 ft | 365 kts | 314° |
| 2026-05-07 02:57 | -24.33507 | -58.42052 | 30300 ft | 363 kts | 314° |
| 2026-05-07 02:57 | -24.31606 | -58.43897 | 30663 ft | 362 kts | 314° |
| 2026-05-07 02:57 | -24.29702 | -58.45743 | 31027 ft | 360 kts | 314° |
| 2026-05-07 02:58 | -24.27814 | -58.47572 | 31386 ft | 358 kts | 314° |
| 2026-05-07 02:58 | -24.25945 | -58.49383 | 31734 ft | 356 kts | 313° |
| 2026-05-07 02:58 | -24.24091 | -58.51179 | 32063 ft | 355 kts | 313° |
| 2026-05-07 02:58 | -24.22232 | -58.52978 | 32375 ft | 353 kts | 313° |
| 2026-05-07 02:59 | -24.20404 | -58.54747 | 32665 ft | 352 kts | 313° |
| 2026-05-07 02:59 | -24.18558 | -58.56533 | 32944 ft | 350 kts | 313° |
| 2026-05-07 02:59 | -24.16727 | -58.58304 | 33211 ft | 349 kts | 313° |
| 2026-05-07 02:59 | -24.14890 | -58.60079 | 33468 ft | 348 kts | 312° |
| 2026-05-07 03:00 | -24.13068 | -58.61839 | 33713 ft | 347 kts | 312° |
| 2026-05-07 03:00 | -24.11255 | -58.63590 | 33945 ft | 346 kts | 312° |
| 2026-05-07 03:00 | -24.09429 | -58.65353 | 34162 ft | 345 kts | 312° |
| 2026-05-07 03:00 | -24.07623 | -58.67106 | 34322 ft | 346 kts | 312° |
| 2026-05-07 03:01 | -24.05803 | -58.68869 | 34540 ft | 346 kts | 312° |
| 2026-05-07 03:01 | -24.04016 | -58.70596 | 34778 ft | 344 kts | 312° |
| 2026-05-07 03:01 | -24.02207 | -58.72342 | 35010 ft | 343 kts | 312° |
| 2026-05-07 03:01 | -24.00398 | -58.74085 | 35218 ft | 342 kts | 312° |
| 2026-05-07 03:02 | -23.98624 | -58.75797 | 35397 ft | 342 kts | 312° |
| 2026-05-07 03:02 | -23.96816 | -58.77542 | 35568 ft | 342 kts | 312° |
| 2026-05-07 03:02 | -23.95019 | -58.79274 | 35729 ft | 342 kts | 312° |
| 2026-05-07 03:02 | -23.93243 | -58.80985 | 35888 ft | 341 kts | 312° |
| 2026-05-07 03:03 | -23.89650 | -58.84445 | 35981 ft | 345 kts | 312° |
| 2026-05-07 03:03 | -23.86008 | -58.87926 | 35995 ft | 345 kts | 313° |
| 2026-05-07 03:04 | -23.82380 | -58.91404 | 35996 ft | 343 kts | 313° |
| 2026-05-07 03:04 | -23.78787 | -58.94851 | 35992 ft | 341 kts | 313° |
| 2026-05-07 03:05 | -23.75222 | -58.98272 | 35991 ft | 339 kts | 313° |
| 2026-05-07 03:05 | -23.71675 | -59.01673 | 35991 ft | 338 kts | 313° |
| 2026-05-07 03:06 | -23.68135 | -59.05064 | 35991 ft | 336 kts | 313° |
| 2026-05-07 03:06 | -23.64607 | -59.08443 | 35989 ft | 336 kts | 313° |
| 2026-05-07 03:07 | -23.61057 | -59.11840 | 35991 ft | 336 kts | 313° |
| 2026-05-07 03:07 | -23.57523 | -59.15218 | 35992 ft | 336 kts | 313° |
| 2026-05-07 03:08 | -23.53985 | -59.18597 | 35992 ft | 336 kts | 313° |
| 2026-05-07 03:08 | -23.50436 | -59.21984 | 35991 ft | 336 kts | 313° |
| 2026-05-07 03:09 | -23.46892 | -59.25367 | 35883 ft | 341 kts | 321° |
| 2026-05-07 03:09 | -23.43281 | -59.28785 | 35993 ft | 341 kts | 319° |
| 2026-05-07 03:10 | -23.41484 | -59.30505 | 36102 ft | 339 kts | 319° |
| 2026-05-07 03:10 | -23.39717 | -59.32194 | 36130 ft | 340 kts | 319° |
| 2026-05-07 03:10 | -23.36109 | -59.35631 | 36116 ft | 345 kts | 319° |
| 2026-05-07 03:11 | -23.32446 | -59.39115 | 36117 ft | 349 kts | 319° |
| 2026-05-07 03:11 | -23.28740 | -59.42636 | 36109 ft | 354 kts | 319° |
| 2026-05-07 03:12 | -23.24988 | -59.46199 | 36119 ft | 359 kts | 319° |
| 2026-05-07 03:12 | -23.21177 | -59.49815 | 36118 ft | 364 kts | 319° |
| 2026-05-07 03:13 | -23.17312 | -59.53479 | 36118 ft | 370 kts | 319° |
| 2026-05-07 03:13 | -23.13370 | -59.57212 | 36118 ft | 376 kts | 319° |
| 2026-05-07 03:14 | -23.09359 | -59.61009 | 36119 ft | 383 kts | 319° |
| 2026-05-07 03:15 | -23.03217 | -59.66824 | 36092 ft | 394 kts | 319° |
| 2026-05-07 03:15 | -22.99038 | -59.70792 | 36121 ft | 400 kts | 319° |
| 2026-05-07 03:16 | -22.94787 | -59.74805 | 36118 ft | 407 kts | 319° |
| 2026-05-07 03:16 | -22.90449 | -59.78895 | 36118 ft | 414 kts | 319° |
| 2026-05-07 03:17 | -22.86034 | -59.83035 | 36110 ft | 420 kts | 319° |
| 2026-05-07 03:17 | -22.81556 | -59.87241 | 36133 ft | 426 kts | 319° |
| 2026-05-07 03:18 | -22.77052 | -59.91474 | 36159 ft | 430 kts | 319° |
| 2026-05-07 03:18 | -22.72505 | -59.95746 | 36167 ft | 430 kts | 319° |
| 2026-05-07 03:19 | -22.67997 | -60.00054 | 36185 ft | 426 kts | 317° |
| 2026-05-07 03:19 | -22.63615 | -60.04376 | 36164 ft | 420 kts | 317° |
| 2026-05-07 03:20 | -22.59282 | -60.08635 | 36152 ft | 420 kts | 317° |
| 2026-05-07 03:20 | -22.54931 | -60.12904 | 36159 ft | 421 kts | 317° |
| 2026-05-07 03:21 | -22.50558 | -60.17189 | 36163 ft | 421 kts | 317° |
| 2026-05-07 03:21 | -22.46208 | -60.21449 | 36162 ft | 421 kts | 317° |
| 2026-05-07 03:22 | -22.41820 | -60.25742 | 36161 ft | 421 kts | 317° |
| 2026-05-07 03:22 | -22.37449 | -60.30014 | 36161 ft | 421 kts | 317° |
| 2026-05-07 03:23 | -22.33104 | -60.34257 | 36161 ft | 421 kts | 317° |
| 2026-05-07 03:23 | -22.28715 | -60.38541 | 36161 ft | 421 kts | 317° |
| 2026-05-07 03:24 | -22.24355 | -60.42786 | 36161 ft | 421 kts | 318° |
| 2026-05-07 03:24 | -22.19975 | -60.47025 | 36161 ft | 421 kts | 318° |
| 2026-05-07 03:25 | -22.16310 | -60.50567 | 36161 ft | 421 kts | 318° |
| 2026-05-07 03:25 | -22.11196 | -60.55506 | 36161 ft | 421 kts | 318° |
| 2026-05-07 03:26 | -22.06802 | -60.59745 | 36161 ft | 421 kts | 318° |
| 2026-05-07 03:26 | -22.02712 | -60.64243 | 36167 ft | 420 kts | 305° |
| 2026-05-07 03:27 | -21.99349 | -60.69515 | 36156 ft | 421 kts | 305° |
| 2026-05-07 03:27 | -21.95928 | -60.74663 | 36164 ft | 421 kts | 306° |
| 2026-05-07 03:28 | -21.92456 | -60.79793 | 36162 ft | 421 kts | 306° |
| 2026-05-07 03:28 | -21.88968 | -60.84927 | 36137 ft | 422 kts | 306° |
| 2026-05-07 03:29 | -21.85465 | -60.90054 | 36162 ft | 421 kts | 306° |
| 2026-05-07 03:29 | -21.82001 | -60.95142 | 36162 ft | 421 kts | 306° |
| 2026-05-07 03:30 | -21.78512 | -61.00269 | 36162 ft | 421 kts | 306° |
| 2026-05-07 03:30 | -21.75027 | -61.05386 | 36161 ft | 421 kts | 306° |
| 2026-05-07 03:31 | -21.71546 | -61.10491 | 36161 ft | 421 kts | 306° |
| 2026-05-07 03:31 | -21.68065 | -61.15592 | 36161 ft | 421 kts | 306° |
| 2026-05-07 03:32 | -21.64560 | -61.20724 | 36161 ft | 421 kts | 306° |
| 2026-05-07 03:32 | -21.61067 | -61.25833 | 36161 ft | 421 kts | 306° |
| 2026-05-07 03:33 | -21.57584 | -61.30923 | 36161 ft | 421 kts | 306° |
| 2026-05-07 03:33 | -21.54092 | -61.36022 | 36161 ft | 421 kts | 306° |
| 2026-05-07 03:34 | -21.50607 | -61.41105 | 36161 ft | 421 kts | 306° |
| 2026-05-07 03:34 | -21.47114 | -61.46196 | 36161 ft | 421 kts | 306° |
| 2026-05-07 03:35 | -21.43625 | -61.51275 | 36161 ft | 421 kts | 306° |
| 2026-05-07 03:35 | -21.40110 | -61.56389 | 36161 ft | 421 kts | 306° |
| 2026-05-07 03:36 | -21.36613 | -61.61472 | 36161 ft | 421 kts | 306° |
| 2026-05-07 03:36 | -21.33123 | -61.66542 | 36129 ft | 422 kts | 306° |
| 2026-05-07 03:37 | -21.29615 | -61.71653 | 36162 ft | 421 kts | 307° |
| 2026-05-07 03:37 | -21.26137 | -61.76698 | 36162 ft | 421 kts | 307° |
| 2026-05-07 03:38 | -21.22617 | -61.81796 | 36162 ft | 421 kts | 307° |
| 2026-05-07 03:38 | -21.19131 | -61.86838 | 36161 ft | 421 kts | 307° |
| 2026-05-07 03:39 | -21.15626 | -61.91904 | 36161 ft | 421 kts | 307° |
| 2026-05-07 03:39 | -21.12116 | -61.96973 | 36161 ft | 421 kts | 307° |
| 2026-05-07 03:40 | -21.08601 | -62.02045 | 36161 ft | 421 kts | 307° |
| 2026-05-07 03:40 | -21.05094 | -62.07101 | 36161 ft | 421 kts | 307° |
| 2026-05-07 03:41 | -21.01589 | -62.12149 | 36161 ft | 421 kts | 307° |
| 2026-05-07 03:41 | -20.98080 | -62.17197 | 36161 ft | 421 kts | 307° |
| 2026-05-07 03:42 | -20.94600 | -62.22257 | 36157 ft | 421 kts | 303° |
| 2026-05-07 03:42 | -20.91541 | -62.27666 | 36161 ft | 421 kts | 301° |
| 2026-05-07 03:43 | -20.88487 | -62.33065 | 36141 ft | 421 kts | 301° |
| 2026-05-07 03:43 | -20.85396 | -62.38440 | 36162 ft | 421 kts | 301° |
| 2026-05-07 03:44 | -20.82328 | -62.43790 | 36162 ft | 421 kts | 301° |
| 2026-05-07 03:44 | -20.79252 | -62.49155 | 36161 ft | 421 kts | 301° |
| 2026-05-07 03:45 | -20.76171 | -62.54523 | 36161 ft | 421 kts | 301° |
| 2026-05-07 03:45 | -20.73077 | -62.59908 | 36161 ft | 421 kts | 301° |
| 2026-05-07 03:46 | -20.70004 | -62.65253 | 36161 ft | 421 kts | 302° |
| 2026-05-07 03:46 | -20.66929 | -62.70618 | 36159 ft | 421 kts | 301° |
| 2026-05-07 03:47 | -20.63841 | -62.75985 | 36162 ft | 421 kts | 302° |
| 2026-05-07 03:47 | -20.60745 | -62.81354 | 36162 ft | 421 kts | 302° |
| 2026-05-07 03:48 | -20.57667 | -62.86687 | 36161 ft | 421 kts | 302° |
| 2026-05-07 03:48 | -20.54567 | -62.92052 | 36161 ft | 421 kts | 302° |
| 2026-05-07 03:49 | -20.51478 | -62.97393 | 36161 ft | 421 kts | 302° |
| 2026-05-07 03:49 | -20.48384 | -63.02738 | 36161 ft | 421 kts | 302° |
| 2026-05-07 03:50 | -20.45316 | -63.08088 | 36161 ft | 421 kts | 301° |
| 2026-05-07 03:50 | -20.42257 | -63.13460 | 36161 ft | 421 kts | 301° |
| 2026-05-07 03:51 | -20.39197 | -63.18810 | 36161 ft | 421 kts | 301° |
| 2026-05-07 03:51 | -20.36123 | -63.24175 | 36161 ft | 421 kts | 301° |
| 2026-05-07 03:52 | -20.33062 | -63.29514 | 36161 ft | 421 kts | 301° |
| 2026-05-07 03:52 | -20.29993 | -63.34859 | 36161 ft | 421 kts | 301° |
| 2026-05-07 03:53 | -20.26932 | -63.40188 | 36161 ft | 421 kts | 301° |
| 2026-05-07 03:53 | -20.23856 | -63.45537 | 36161 ft | 421 kts | 301° |
| 2026-05-07 03:54 | -20.20770 | -63.50898 | 36161 ft | 421 kts | 301° |
| 2026-05-07 03:54 | -20.17702 | -63.56224 | 36161 ft | 421 kts | 301° |
| 2026-05-07 03:55 | -20.14634 | -63.61544 | 36161 ft | 421 kts | 301° |
| 2026-05-07 03:55 | -20.11543 | -63.66904 | 36125 ft | 422 kts | 301° |
| 2026-05-07 03:56 | -20.08476 | -63.72234 | 36162 ft | 421 kts | 302° |
| 2026-05-07 03:56 | -20.05394 | -63.77567 | 36162 ft | 421 kts | 302° |
| 2026-05-07 03:57 | -20.02335 | -63.82903 | 36162 ft | 421 kts | 301° |
| 2026-05-07 03:57 | -19.99301 | -63.88195 | 36161 ft | 421 kts | 301° |
| 2026-05-07 03:58 | -19.96225 | -63.93556 | 36161 ft | 421 kts | 301° |
| 2026-05-07 03:58 | -19.93172 | -63.98874 | 36161 ft | 421 kts | 301° |
| 2026-05-07 03:59 | -19.90106 | -64.04207 | 36161 ft | 421 kts | 301° |
| 2026-05-07 03:59 | -19.87039 | -64.09534 | 36159 ft | 421 kts | 301° |
| 2026-05-07 04:00 | -19.83973 | -64.14888 | 36161 ft | 421 kts | 301° |
| 2026-05-07 04:00 | -19.80920 | -64.20222 | 36162 ft | 421 kts | 301° |
| 2026-05-07 04:01 | -19.77870 | -64.25549 | 36161 ft | 421 kts | 301° |